createdAt,value
2023-04-21T00:01:40.265Z,96733.00
2023-04-21T00:04:07.404Z,96753.00
2023-04-21T00:06:34.445Z,96758.00
2023-04-21T00:09:01.319Z,96744.00
2023-04-21T00:11:28.328Z,96747.00
2023-04-21T00:13:56.246Z,96746.00
2023-04-21T00:16:23.251Z,96753.00
2023-04-21T00:18:50.148Z,96752.00
2023-04-21T00:21:18.446Z,96751.00
2023-04-21T00:23:47.261Z,96747.00
2023-04-21T00:26:14.040Z,96750.00
2023-04-21T00:28:40.870Z,96746.00
2023-04-21T00:31:07.819Z,96743.00
2023-04-21T00:33:34.714Z,96748.00
2023-04-21T00:36:01.460Z,96723.00
2023-04-21T00:38:28.207Z,96736.00
2023-04-21T00:40:55.380Z,96734.00
2023-04-21T00:43:22.261Z,96730.00
2023-04-21T00:45:49.107Z,96740.00
2023-04-21T00:48:16.209Z,96739.00
2023-04-21T00:50:44.997Z,96732.00
2023-04-21T00:53:14.688Z,96731.00
2023-04-21T00:55:41.860Z,96722.00
2023-04-21T00:58:08.693Z,96725.00
2023-04-21T01:00:36.423Z,96720.00
2023-04-21T01:03:04.652Z,96724.00
2023-04-21T01:05:32.086Z,96714.00
2023-04-21T01:07:59.247Z,96715.00
2023-04-21T01:10:26.307Z,96728.00
2023-04-21T01:12:53.118Z,96728.00
2023-04-21T01:15:19.976Z,96721.00
2023-04-21T01:17:46.925Z,96730.00
2023-04-21T01:20:15.280Z,96722.00
2023-04-21T01:22:45.072Z,96720.00
2023-04-21T01:25:12.037Z,96717.00
2023-04-21T01:27:38.883Z,96718.00
2023-04-21T01:30:07.513Z,96729.00
2023-04-21T01:32:34.491Z,96734.00
2023-04-21T01:35:01.938Z,96722.00
2023-04-21T01:37:32.527Z,96727.00
2023-04-21T01:40:04.785Z,96729.00
2023-04-21T01:42:33.261Z,96729.00
2023-04-21T01:45:00.712Z,96734.00
2023-04-21T01:47:27.521Z,96720.00
2023-04-21T01:49:54.385Z,96726.00
2023-04-21T01:52:21.741Z,96739.00
2023-04-21T01:54:49.112Z,96729.00
2023-04-21T01:57:17.300Z,96740.00
2023-04-21T01:59:44.800Z,96732.00
2023-04-21T02:02:11.856Z,96732.00
2023-04-21T02:04:38.982Z,96730.00
2023-04-21T02:07:05.951Z,96729.00
2023-04-21T02:09:33.050Z,96728.00
2023-04-21T02:12:00.396Z,96726.00
2023-04-21T02:14:27.445Z,96731.00
2023-04-21T02:16:56.072Z,96730.00
2023-04-21T02:19:23.481Z,96728.00
2023-04-21T02:21:50.361Z,96730.00
2023-04-21T02:24:17.504Z,96732.00
2023-04-21T02:26:44.296Z,96735.00
2023-04-21T02:29:11.167Z,96739.00
2023-04-21T02:31:53.832Z,96731.00
2023-04-21T02:34:24.533Z,96742.00
2023-04-21T02:36:51.288Z,96736.00
2023-04-21T02:39:18.212Z,96736.00
2023-04-21T02:41:45.251Z,96743.00
2023-04-21T02:44:12.153Z,96747.00
2023-04-21T02:46:42.223Z,96747.00
2023-04-21T02:49:10.689Z,96735.00
2023-04-21T02:51:37.975Z,96743.00
2023-04-21T02:54:06.071Z,96733.00
2023-04-21T02:56:34.679Z,96744.00
2023-04-21T02:59:01.488Z,96743.00
2023-04-21T03:01:28.268Z,96746.00
2023-04-21T03:03:55.362Z,96735.00
2023-04-21T03:06:22.273Z,96735.00
2023-04-21T03:08:49.112Z,96734.00
2023-04-21T03:11:15.881Z,96742.00
2023-04-21T03:13:42.635Z,96746.00
2023-04-21T03:16:09.417Z,96748.00
2023-04-21T03:18:36.462Z,96750.00
2023-04-21T03:21:03.528Z,96739.00
2023-04-21T03:23:30.374Z,96752.00
2023-04-21T03:25:57.174Z,96740.00
2023-04-21T03:28:24.179Z,96747.00
2023-04-21T03:30:51.008Z,96747.00
2023-04-21T03:33:17.770Z,96754.00
2023-04-21T03:35:44.528Z,96748.00
2023-04-21T03:38:11.367Z,96742.00
2023-04-21T03:40:38.148Z,96754.00
2023-04-21T03:43:04.905Z,96749.00
2023-04-21T03:45:31.848Z,96745.00
2023-04-21T03:47:58.826Z,96746.00
2023-04-21T03:50:25.666Z,96743.00
2023-04-21T03:52:52.438Z,96743.00
2023-04-21T03:55:19.327Z,96752.00
2023-04-21T03:57:46.205Z,96746.00
2023-04-21T04:00:13.940Z,96749.00
2023-04-21T04:02:41.077Z,96754.00
2023-04-21T04:05:08.671Z,96754.00
2023-04-21T04:07:35.917Z,96757.00
2023-04-21T04:10:04.501Z,96755.00
2023-04-21T04:12:31.259Z,96761.00
2023-04-21T04:14:58.031Z,96759.00
2023-04-21T04:17:24.907Z,96761.00
2023-04-21T04:19:51.722Z,96759.00
2023-04-21T04:22:18.583Z,96759.00
2023-04-21T04:24:45.455Z,96761.00
2023-04-21T04:27:14.105Z,96768.00
2023-04-21T04:29:41.254Z,96766.00
2023-04-21T04:32:11.107Z,96770.00
2023-04-21T04:34:38.443Z,96766.00
2023-04-21T04:37:06.874Z,96753.00
2023-04-21T04:39:33.823Z,96764.00
2023-04-21T04:42:01.567Z,96770.00
2023-04-21T04:44:28.388Z,96773.00
2023-04-21T04:46:56.463Z,96766.00
2023-04-21T04:49:24.219Z,96771.00
2023-04-21T04:51:51.249Z,96768.00
2023-04-21T04:54:18.342Z,96775.00
2023-04-21T04:56:46.101Z,96778.00
2023-04-21T04:59:13.145Z,96765.00
2023-04-21T05:01:41.871Z,96775.00
2023-04-21T05:04:09.176Z,96774.00
2023-04-21T05:06:36.145Z,96784.00
2023-04-21T05:09:05.028Z,96788.00
2023-04-21T05:11:32.136Z,96790.00
2023-04-21T05:13:59.217Z,96790.00
2023-04-21T05:16:26.539Z,96797.00
2023-04-21T05:18:54.048Z,96798.00
2023-04-21T05:21:27.411Z,96794.00
2023-04-21T05:24:03.496Z,96801.00
2023-04-21T05:26:30.514Z,96796.00
2023-04-21T05:28:58.238Z,96795.00
2023-04-21T05:31:25.960Z,96800.00
2023-04-21T05:33:52.870Z,96808.00
2023-04-21T05:36:24.848Z,96804.00
2023-04-21T05:38:52.564Z,96803.00
2023-04-21T05:41:19.370Z,96792.00
2023-04-21T05:43:47.525Z,96796.00
2023-04-21T05:46:14.703Z,96794.00
2023-04-21T05:48:41.638Z,96791.00
2023-04-21T05:51:15.323Z,96802.00
2023-04-21T05:53:44.526Z,96789.00
2023-04-21T05:56:12.465Z,96794.00
2023-04-21T05:58:39.681Z,96793.00
2023-04-21T06:01:06.685Z,96799.00
2023-04-21T06:03:34.498Z,96787.00
2023-04-21T06:06:03.828Z,96789.00
2023-04-21T06:08:30.680Z,96788.00
2023-04-21T06:10:57.490Z,96785.00
2023-04-21T06:13:24.583Z,96786.00
2023-04-21T06:15:51.397Z,96795.00
2023-04-21T06:18:18.257Z,96782.00
2023-04-21T06:20:51.624Z,96787.00
2023-04-21T06:23:18.828Z,96782.00
2023-04-21T06:25:45.839Z,96795.00
2023-04-21T06:28:12.771Z,96798.00
2023-04-21T06:30:40.004Z,96797.00
2023-04-21T06:33:07.070Z,96785.00
2023-04-21T06:35:34.074Z,96800.00
2023-04-21T06:38:01.210Z,96798.00
2023-04-21T06:40:28.085Z,96794.00
2023-04-21T06:42:54.936Z,96802.00
2023-04-21T06:45:21.981Z,96801.00
2023-04-21T06:47:48.845Z,96802.00
2023-04-21T06:50:16.302Z,96801.00
2023-04-21T06:52:43.154Z,96794.00
2023-04-21T06:55:10.050Z,96795.00
2023-04-21T06:57:37.551Z,96789.00
2023-04-21T07:00:05.988Z,96791.00
2023-04-21T07:02:32.968Z,96779.00
2023-04-21T07:04:59.776Z,96786.00
2023-04-21T07:07:26.730Z,96788.00
2023-04-21T07:09:53.576Z,96791.00
2023-04-21T07:12:20.566Z,96785.00
2023-04-21T07:14:47.709Z,96788.00
2023-04-21T07:17:14.516Z,96779.00
2023-04-21T07:19:41.873Z,96785.00
2023-04-21T07:22:08.687Z,96775.00
2023-04-21T07:24:37.258Z,96789.00
2023-04-21T07:27:04.358Z,96784.00
2023-04-21T07:29:31.394Z,96778.00
2023-04-21T07:31:58.856Z,96782.00
2023-04-21T07:34:25.813Z,96776.00
2023-04-21T07:36:53.200Z,96767.00
2023-04-21T07:39:20.148Z,96776.00
2023-04-21T07:41:47.102Z,96765.00
2023-04-21T07:44:13.914Z,96771.00
2023-04-21T07:46:41.155Z,96764.00
2023-04-21T07:49:08.548Z,96773.00
2023-04-21T07:51:35.383Z,96773.00
2023-04-21T07:54:02.215Z,96767.00
2023-04-21T07:56:29.184Z,96767.00
2023-04-21T07:58:55.960Z,96762.00
2023-04-21T08:01:23.716Z,96768.00
2023-04-21T08:03:50.579Z,96767.00
2023-04-21T08:06:17.823Z,96776.00
2023-04-21T08:11:28.711Z,96774.00
2023-04-21T08:13:55.512Z,96775.00
2023-04-21T08:16:22.369Z,96771.00
2023-04-21T08:18:49.473Z,96763.00
2023-04-21T08:21:16.271Z,96768.00
2023-04-21T08:23:44.186Z,96769.00
2023-04-21T08:26:11.086Z,96766.00
2023-04-21T08:28:37.886Z,96769.00
2023-04-21T08:31:05.226Z,96774.00
2023-04-21T08:33:32.040Z,96772.00
2023-04-21T08:36:05.440Z,96770.00
2023-04-21T08:38:35.533Z,96773.00
2023-04-21T08:41:04.289Z,96776.00
2023-04-21T08:43:31.156Z,96771.00
2023-04-21T08:45:59.095Z,96777.00
2023-04-21T08:48:27.997Z,96760.00
2023-04-21T08:50:54.868Z,96760.00
2023-04-21T08:53:21.783Z,96753.00
2023-04-21T08:56:07.463Z,96765.00
2023-04-21T08:58:37.498Z,96761.00
2023-04-21T09:01:04.429Z,96757.00
2023-04-21T09:03:31.438Z,96767.00
2023-04-21T09:06:08.396Z,96757.00
2023-04-21T09:08:39.892Z,96767.00
2023-04-21T09:11:06.821Z,96754.00
2023-04-21T09:13:36.358Z,96760.00
2023-04-21T09:16:16.483Z,96747.00
2023-04-21T09:18:44.505Z,96752.00
2023-04-21T09:21:17.302Z,96759.00
2023-04-21T09:23:46.486Z,96761.00
2023-04-21T09:26:14.049Z,96757.00
2023-04-21T09:28:46.328Z,96763.00
2023-04-21T09:31:20.455Z,96757.00
2023-04-21T09:34:01.178Z,96754.00
2023-04-21T09:36:31.109Z,96751.00
2023-04-21T09:41:32.912Z,96750.00
2023-04-21T09:44:04.710Z,96745.00
2023-04-21T09:46:36.482Z,96736.00
2023-04-21T09:49:04.617Z,96754.00
2023-04-21T09:52:02.270Z,96757.00
2023-04-21T09:56:57.681Z,96760.00
2023-04-21T09:59:45.400Z,96753.00
2023-04-21T10:02:13.495Z,96758.00
2023-04-21T10:04:43.304Z,96745.00
2023-04-21T10:07:11.169Z,96743.00
2023-04-21T10:09:49.473Z,96750.00
2023-04-21T10:12:17.818Z,96750.00
2023-04-21T10:14:44.684Z,96751.00
2023-04-21T10:17:12.136Z,96761.00
2023-04-21T10:19:57.214Z,96749.00
2023-04-21T10:22:30.039Z,96736.00
2023-04-21T10:25:00.164Z,96740.00
2023-04-21T10:27:39.550Z,96736.00
2023-04-21T10:30:29.009Z,96741.00
2023-04-21T10:33:06.647Z,96734.00
2023-04-21T10:35:58.879Z,96739.00
2023-04-21T10:38:42.304Z,96733.00
2023-04-21T10:41:34.848Z,96731.00
2023-04-21T10:44:16.317Z,96725.00
2023-04-21T10:46:49.060Z,96720.00
2023-04-21T10:49:25.578Z,96726.00
2023-04-21T10:51:59.229Z,96724.00
2023-04-21T10:54:27.802Z,96713.00
2023-04-21T10:56:56.366Z,96712.00
2023-04-21T10:59:24.242Z,96704.00
2023-04-21T11:01:51.348Z,96721.00
2023-04-21T11:04:21.495Z,96712.00
2023-04-21T11:07:14.536Z,96708.00
2023-04-21T11:09:42.648Z,96702.00
2023-04-21T11:12:13.626Z,96697.00
2023-04-21T11:14:43.277Z,96698.00
2023-04-21T11:17:15.787Z,96695.00
2023-04-21T11:19:46.903Z,96695.00
2023-04-21T11:22:13.784Z,96700.00
2023-04-21T11:24:46.155Z,96694.00
2023-04-21T11:27:14.602Z,96690.00
2023-04-21T11:29:42.307Z,96686.00
2023-04-21T11:32:09.597Z,96690.00
2023-04-21T11:34:40.400Z,96682.00
2023-04-21T11:37:09.794Z,96681.00
2023-04-21T11:39:40.797Z,96677.00
2023-04-21T11:42:07.717Z,96678.00
2023-04-21T11:44:36.289Z,96673.00
2023-04-21T11:47:21.183Z,96669.00
2023-04-21T11:49:55.080Z,96675.00
2023-04-21T11:52:29.516Z,96662.00
2023-04-21T11:55:02.783Z,96676.00
2023-04-21T11:57:32.402Z,96661.00
2023-04-21T12:00:01.935Z,96655.00
2023-04-21T12:02:44.692Z,96664.00
2023-04-21T12:05:13.590Z,96660.00
2023-04-21T12:07:46.147Z,96657.00
2023-04-21T12:10:17.348Z,96653.00
2023-04-21T12:12:45.554Z,96654.00
2023-04-21T12:15:21.452Z,96658.00
2023-04-21T12:17:53.560Z,96660.00
2023-04-21T12:20:24.146Z,96660.00
2023-04-21T12:22:51.207Z,96645.00
2023-04-21T12:25:18.569Z,96650.00
2023-04-21T12:27:50.000Z,96651.00
2023-04-21T12:30:17.270Z,96647.00
2023-04-21T12:32:44.150Z,96651.00
2023-04-21T12:35:11.255Z,96644.00
2023-04-21T12:37:38.939Z,96642.00
2023-04-21T12:40:07.884Z,96636.00
2023-04-21T12:42:37.430Z,96642.00
2023-04-21T12:45:06.529Z,96642.00
2023-04-21T12:47:34.024Z,96642.00
2023-04-21T12:50:01.288Z,96639.00
2023-04-21T12:52:28.202Z,96634.00
2023-04-21T12:54:55.241Z,96636.00
2023-04-21T12:57:22.290Z,96630.00
2023-04-21T12:59:49.474Z,96634.00
2023-04-21T13:02:16.754Z,96640.00
2023-04-21T13:04:43.680Z,96631.00
2023-04-21T13:07:10.656Z,96627.00
2023-04-21T13:09:37.521Z,96634.00
2023-04-21T13:12:04.602Z,96637.00
2023-04-21T13:14:31.679Z,96622.00
2023-04-21T13:16:59.046Z,96612.00
2023-04-21T13:19:26.287Z,96627.00
2023-04-21T13:21:54.394Z,96622.00
2023-04-21T13:24:22.134Z,96623.00
2023-04-21T13:26:49.004Z,96631.00
2023-04-21T13:29:16.246Z,96630.00
2023-04-21T13:31:43.307Z,96613.00
2023-04-21T13:34:10.509Z,96625.00
2023-04-21T13:36:37.592Z,96624.00
2023-04-21T13:39:05.586Z,96613.00
2023-04-21T13:41:32.534Z,96618.00
2023-04-21T13:43:59.865Z,96617.00
2023-04-21T13:46:27.136Z,96617.00
2023-04-21T13:48:54.496Z,96603.00
2023-04-21T13:51:21.493Z,96609.00
2023-04-21T13:53:49.053Z,96614.00
2023-04-21T13:56:16.943Z,96619.00
2023-04-21T13:58:45.140Z,96622.00
2023-04-21T14:01:14.592Z,96611.00
2023-04-21T14:03:41.944Z,96615.00
2023-04-21T14:06:09.031Z,96609.00
2023-04-21T14:08:36.101Z,96619.00
2023-04-21T14:11:04.100Z,96615.00
2023-04-21T14:13:39.522Z,96607.00
2023-04-21T14:16:11.669Z,96604.00
2023-04-21T14:18:44.266Z,96610.00
2023-04-21T14:21:14.179Z,96599.00
2023-04-21T14:23:40.973Z,96607.00
2023-04-21T14:26:07.857Z,96613.00
2023-04-21T14:28:34.638Z,96599.00
2023-04-21T14:31:01.806Z,96590.00
2023-04-21T14:33:29.673Z,96594.00
2023-04-21T14:35:56.870Z,96599.00
2023-04-21T14:38:24.453Z,96588.00
2023-04-21T14:40:54.458Z,96590.00
2023-04-21T14:43:22.074Z,96595.00
2023-04-21T14:45:49.149Z,96595.00
2023-04-21T14:48:16.229Z,96594.00
2023-04-21T14:50:43.224Z,96594.00
2023-04-21T14:53:10.081Z,96597.00
2023-04-21T14:55:36.939Z,96581.00
2023-04-21T14:58:03.873Z,96588.00
2023-04-21T15:00:32.103Z,96587.00
2023-04-21T15:02:59.354Z,96585.00
2023-04-21T15:05:26.378Z,96577.00
2023-04-21T15:07:53.717Z,96582.00
2023-04-21T15:10:20.634Z,96575.00
2023-04-21T15:12:47.588Z,96577.00
2023-04-21T15:15:14.509Z,96572.00
2023-04-21T15:17:41.510Z,96579.00
2023-04-21T15:20:10.177Z,96575.00
2023-04-21T15:22:37.264Z,96575.00
2023-04-21T15:25:04.484Z,96574.00
2023-04-21T15:27:31.352Z,96575.00
2023-04-21T15:29:58.444Z,96576.00
2023-04-21T15:32:25.576Z,96575.00
2023-04-21T15:34:52.646Z,96574.00
2023-04-21T15:37:22.837Z,96568.00
2023-04-21T15:39:51.204Z,96574.00
2023-04-21T15:42:18.078Z,96568.00
2023-04-21T15:44:46.912Z,96574.00
2023-04-21T15:47:16.413Z,96575.00
2023-04-21T15:49:43.511Z,96558.00
2023-04-21T15:52:11.023Z,96559.00
2023-04-21T15:54:38.275Z,96561.00
2023-04-21T15:57:05.686Z,96566.00
2023-04-21T15:59:32.568Z,96564.00
2023-04-21T16:01:59.505Z,96561.00
2023-04-21T16:04:26.617Z,96563.00
2023-04-21T16:06:53.695Z,96560.00
2023-04-21T16:09:23.640Z,96565.00
2023-04-21T16:11:51.264Z,96563.00
2023-04-21T16:14:18.722Z,96566.00
2023-04-21T16:16:45.982Z,96562.00
2023-04-21T16:19:12.960Z,96564.00
2023-04-21T16:21:40.157Z,96558.00
2023-04-21T16:24:08.774Z,96561.00
2023-04-21T16:26:36.704Z,96566.00
2023-04-21T16:29:03.694Z,96560.00
2023-04-21T16:31:31.329Z,96560.00
2023-04-21T16:33:59.892Z,96559.00
2023-04-21T16:36:28.478Z,96551.00
2023-04-21T16:38:56.085Z,96559.00
2023-04-21T16:41:23.449Z,96560.00
2023-04-21T16:43:50.402Z,96557.00
2023-04-21T16:46:17.474Z,96560.00
2023-04-21T16:48:44.441Z,96561.00
2023-04-21T16:51:11.283Z,96564.00
2023-04-21T16:53:40.130Z,96565.00
2023-04-21T16:56:07.369Z,96569.00
2023-04-21T16:58:34.249Z,96559.00
2023-04-21T17:01:01.334Z,96569.00
2023-04-21T17:03:29.482Z,96567.00
2023-04-21T17:05:56.570Z,96571.00
2023-04-21T17:08:23.385Z,96564.00
2023-04-21T17:10:50.453Z,96572.00
2023-04-21T17:13:17.240Z,96565.00
2023-04-21T17:15:44.071Z,96568.00
2023-04-21T17:18:11.216Z,96570.00
2023-04-21T17:20:38.175Z,96567.00
2023-04-21T17:23:05.021Z,96569.00
2023-04-21T17:25:32.015Z,96561.00
2023-04-21T17:27:58.861Z,96563.00
2023-04-21T17:30:25.914Z,96567.00
2023-04-21T17:33:04.057Z,96570.00
2023-04-21T17:35:35.729Z,96569.00
2023-04-21T17:38:02.875Z,96553.00
2023-04-21T17:40:29.808Z,96563.00
2023-04-21T17:42:56.971Z,96572.00
2023-04-21T17:45:25.252Z,96570.00
2023-04-21T17:47:52.188Z,96568.00
2023-04-21T17:50:19.597Z,96566.00
2023-04-21T17:52:46.523Z,96575.00
2023-04-21T17:55:15.510Z,96571.00
2023-04-21T17:57:42.498Z,96577.00
2023-04-21T18:00:11.459Z,96584.00
2023-04-21T18:02:38.329Z,96583.00
2023-04-21T18:05:06.461Z,96589.00
2023-04-21T18:07:33.700Z,96586.00
2023-04-21T18:10:00.540Z,96584.00
2023-04-21T18:12:27.390Z,96588.00
2023-04-21T18:14:54.155Z,96594.00
2023-04-21T18:17:23.301Z,96587.00
2023-04-21T18:19:50.269Z,96594.00
2023-04-21T18:22:17.225Z,96596.00
2023-04-21T18:24:44.171Z,96597.00
2023-04-21T18:27:11.267Z,96591.00
2023-04-21T18:29:38.133Z,96597.00
2023-04-21T18:32:05.091Z,96603.00
2023-04-21T18:34:31.916Z,96601.00
2023-04-21T18:36:59.163Z,96608.00
2023-04-21T18:39:26.210Z,96611.00
2023-04-21T18:41:53.206Z,96615.00
2023-04-21T18:44:20.088Z,96622.00
2023-04-21T18:46:47.085Z,96614.00
2023-04-21T18:49:13.986Z,96620.00
2023-04-21T18:51:41.504Z,96619.00
2023-04-21T18:54:08.590Z,96626.00
2023-04-21T18:56:35.402Z,96613.00
2023-04-21T18:59:02.218Z,96624.00
2023-04-21T19:01:29.118Z,96626.00
2023-04-21T19:03:56.340Z,96626.00
2023-04-21T19:06:23.328Z,96632.00
2023-04-21T19:08:52.925Z,96626.00
2023-04-21T19:11:19.804Z,96630.00
2023-04-21T19:13:48.278Z,96628.00
2023-04-21T19:16:16.622Z,96627.00
2023-04-21T19:18:43.783Z,96619.00
2023-04-21T19:21:13.509Z,96625.00
2023-04-21T19:23:41.670Z,96615.00
2023-04-21T19:26:09.744Z,96624.00
2023-04-21T19:28:36.731Z,96629.00
2023-04-21T19:31:03.762Z,96626.00
2023-04-21T19:33:31.138Z,96632.00
2023-04-21T19:35:58.836Z,96624.00
2023-04-21T19:38:26.616Z,96629.00
2023-04-21T19:40:54.803Z,96626.00
2023-04-21T19:43:22.646Z,96630.00
2023-04-21T19:45:49.756Z,96623.00
2023-04-21T19:48:17.467Z,96624.00
2023-04-21T19:50:44.432Z,96628.00
2023-04-21T19:53:14.671Z,96629.00
2023-04-21T19:55:45.820Z,96629.00
2023-04-21T19:58:12.667Z,96632.00
2023-04-21T20:00:39.528Z,96638.00
2023-04-21T20:03:07.442Z,96639.00
2023-04-21T20:05:34.649Z,96637.00
2023-04-21T20:08:01.468Z,96630.00
2023-04-21T20:10:28.274Z,96630.00
2023-04-21T20:12:55.125Z,96629.00
2023-04-21T20:15:22.541Z,96637.00
2023-04-21T20:17:49.959Z,96640.00
2023-04-21T20:20:17.519Z,96642.00
2023-04-21T20:22:44.521Z,96645.00
2023-04-21T20:25:11.364Z,96642.00
2023-04-21T20:27:38.532Z,96646.00
2023-04-21T20:30:08.027Z,96652.00
2023-04-21T20:32:35.011Z,96644.00
2023-04-21T20:35:02.067Z,96650.00
2023-04-21T20:37:29.616Z,96652.00
2023-04-21T20:39:57.134Z,96645.00
2023-04-21T20:42:23.946Z,96649.00
2023-04-21T20:44:51.125Z,96653.00
2023-04-21T20:47:18.040Z,96652.00
2023-04-21T20:49:46.890Z,96647.00
2023-04-21T20:52:13.786Z,96658.00
2023-04-21T20:54:40.704Z,96660.00
2023-04-21T20:57:08.485Z,96654.00
2023-04-21T20:59:35.613Z,96657.00
2023-04-21T21:02:02.670Z,96667.00
2023-04-21T21:04:29.690Z,96673.00
2023-04-21T21:06:56.661Z,96664.00
2023-04-21T21:09:23.596Z,96669.00
2023-04-21T21:11:50.534Z,96671.00
2023-04-21T21:14:17.509Z,96672.00
2023-04-21T21:16:44.465Z,96674.00
2023-04-21T21:19:12.667Z,96673.00
2023-04-21T21:21:39.505Z,96676.00
2023-04-21T21:24:06.742Z,96683.00
2023-04-21T21:26:33.917Z,96684.00
2023-04-21T21:29:00.676Z,96671.00
2023-04-21T21:31:27.779Z,96684.00
2023-04-21T21:33:55.132Z,96681.00
2023-04-21T21:36:22.064Z,96688.00
2023-04-21T21:38:48.845Z,96685.00
2023-04-21T21:41:16.937Z,96698.00
2023-04-21T21:43:43.714Z,96692.00
2023-04-21T21:46:10.544Z,96679.00
2023-04-21T21:48:37.444Z,96675.00
2023-04-21T21:51:05.628Z,96699.00
2023-04-21T21:53:32.759Z,96693.00
2023-04-21T21:58:55.746Z,96688.00
2023-04-21T22:01:23.237Z,96695.00
2023-04-21T22:03:51.735Z,96695.00
2023-04-21T22:06:18.735Z,96701.00
2023-04-21T22:08:45.701Z,96686.00
2023-04-21T22:11:12.586Z,96700.00
2023-04-21T22:13:39.514Z,96691.00
2023-04-21T22:16:06.962Z,96694.00
2023-04-21T22:18:33.853Z,96691.00
2023-04-21T22:21:00.675Z,96695.00
2023-04-21T22:23:27.514Z,96686.00
2023-04-21T22:25:54.299Z,96689.00
2023-04-21T22:28:21.101Z,96686.00
2023-04-21T22:30:47.883Z,96687.00
2023-04-21T22:33:14.813Z,96683.00
2023-04-21T22:35:41.651Z,96676.00
2023-04-21T22:38:08.469Z,96678.00
2023-04-21T22:40:35.943Z,96682.00
2023-04-21T22:43:03.010Z,96689.00
2023-04-21T22:45:29.856Z,96692.00
2023-04-21T22:47:56.834Z,96678.00
2023-04-21T22:50:24.125Z,96681.00
2023-04-21T22:52:51.773Z,96688.00
2023-04-21T22:55:18.546Z,96681.00
2023-04-21T22:57:45.600Z,96693.00
2023-04-21T23:00:12.928Z,96692.00
2023-04-21T23:02:39.927Z,96691.00
2023-04-21T23:05:07.644Z,96685.00
2023-04-21T23:07:34.528Z,96690.00
2023-04-21T23:10:01.305Z,96691.00
2023-04-21T23:12:28.178Z,96684.00
2023-04-21T23:14:54.961Z,96687.00
2023-04-21T23:17:22.061Z,96692.00
2023-04-21T23:19:49.035Z,96687.00
2023-04-21T23:22:15.881Z,96696.00
2023-04-21T23:24:42.648Z,96688.00
2023-04-21T23:27:09.574Z,96689.00
2023-04-21T23:29:36.707Z,96696.00
2023-04-21T23:32:04.140Z,96687.00
2023-04-21T23:34:31.756Z,96694.00
2023-04-21T23:36:58.589Z,96688.00
2023-04-21T23:39:25.691Z,96696.00
2023-04-21T23:41:52.580Z,96692.00
2023-04-21T23:44:19.377Z,96691.00
2023-04-21T23:46:46.208Z,96687.00
2023-04-21T23:49:13.039Z,96695.00
2023-04-21T23:51:40.430Z,96700.00
2023-04-21T23:54:07.836Z,96693.00
2023-04-21T23:56:34.621Z,96693.00
2023-04-21T23:59:01.430Z,96697.00
